• Join FlightAware (Why Join?)
  • Login
  • US Flag 
03:21AM EDT


 

Airport Tracker/Info


-or-


 

Live Flight TrackerFlight Track Log ✈ ASQ6168 ✈ 2013年 05月 12日 ✈ KICT - KORD

Flight Track Log - Related Links

Times and Time Zones

All times are in EDT time to prevent confusion due to time zone crossing. See the ASQ6168 flight status page for this flight to view local times or setup timezone preferences in your user account.

Time Position Orientation Groundspeed Altitude Reporting Facility
EDT Latitude Longitude Course Direction KTS MPH feet Rate Location/Type
03:54PM 37.6339 -97.4472 234° Southwest 189 217 1,900  Level Kansas City Center
03:55PM 37.6142 -97.4819 234° Southwest 181 208 3,400 1,800 Climbing Kansas City Center
03:56PM 37.6183 -97.5225 277° West 242 278 4,500 1,560 Climbing Kansas City Center
03:56PM 37.6444 -97.5328 343° North 260 299 5,000 1,440 Climbing Kansas City Center
03:57PM 37.6917 -97.5231 North 266 306 6,000 2,040 Climbing Kansas City Center
03:57PM 37.7222 -97.5131 15° North 302 348 7,100 3,060 Climbing Kansas City Center
03:58PM 37.7658 -97.4992 14° North 276 318 9,200 1,980 Climbing Kansas City Center
03:59PM 37.8517 -97.4708 15° North 272 313 10,700 1,680 Climbing Kansas City Center
04:00PM 37.9350 -97.4428 15° North 308 354 12,700 2,100 Climbing Kansas City Center
04:01PM 38.0128 -97.4194 13° North 292 336 15,100 2,220 Climbing Kansas City Center
04:02PM 38.0856 -97.3964 14° North 273 314 17,300 1,800 Climbing Kansas City Center
04:03PM 38.1569 -97.3744 14° North 266 306 18,900 1,740 Climbing Kansas City Center
04:04PM 38.2275 -97.3514 14° North 263 303 20,900 1,560 Climbing Kansas City Center
04:05PM 38.2861 -97.2572 52° Northeast 301 346 22,200 1,080 Climbing Kansas City Center
04:06PM 38.3286 -97.1556 62° Northeast 323 372 23,200 960 Climbing Kansas City Center
04:07PM 38.3722 -97.0483 63° Northeast 340 391 24,200 720 Climbing Kansas City Center
04:08PM 38.4186 -96.9356 62° Northeast 357 411 24,800 600 Climbing Kansas City Center
04:09PM 38.4744 -96.7978 63° Northeast 375 432 25,500 540 Climbing Kansas City Center
04:10PM 38.5222 -96.6814 62° Northeast 383 441 26,000 480 Climbing Kansas City Center
04:11PM 38.5703 -96.5617 63° Northeast 392 451 26,600 720 Climbing Kansas City Center
04:12PM 38.6258 -96.4225 63° Northeast 393 452 27,500 840 Climbing Kansas City Center
04:13PM 38.6731 -96.3058 63° Northeast 388 447 28,400 960 Climbing Kansas City Center
04:14PM 38.7258 -96.1736 63° Northeast 375 432 29,500 960 Climbing Kansas City Center
04:15PM 38.7711 -96.0608 63° Northeast 370 426 30,400 720 Climbing Kansas City Center
04:16PM 38.8233 -95.9272 63° Northeast 375 432 31,000 240 Climbing Kansas City Center
04:17PM 38.8706 -95.8078 63° Northeast 391 450 31,000  Level Kansas City Center
04:19PM 38.9281 -95.6594 63° Northeast 414 476 31,000  Level Kansas City Center
04:20PM 38.9792 -95.5303 63° Northeast 426 490 31,000  Level Kansas City Center
04:21PM 39.0406 -95.3747 63° Northeast 433 498 31,000  Level Kansas City Center
04:22PM 39.0931 -95.2375 64° Northeast 430 495 31,000  Level Kansas City Center
04:23PM 39.1469 -95.0950 64° Northeast 431 496 31,000  Level Kansas City Center
04:24PM 39.1978 -94.9647 63° Northeast 430 495 31,000  Level Kansas City Center
04:25PM 39.2575 -94.8100 63° Northeast 433 498 31,000  Level Kansas City Center
04:26PM 39.3081 -94.6772 64° Northeast 432 497 31,000  Level Kansas City Center
04:27PM 39.3725 -94.5233 62° Northeast 434 499 31,000  Level Kansas City Center
04:28PM 39.4292 -94.3839 62° Northeast 450 518 31,000  Level Kansas City Center
04:29PM 39.4947 -94.2222 62° Northeast 454 522 31,000  Level Kansas City Center
04:30PM 39.5508 -94.0842 62° Northeast 453 521 31,000  Level Kansas City Center
04:31PM 39.6147 -93.9219 63° Northeast 453 521 31,000  Level Kansas City Center
04:32PM 39.6717 -93.7822 62° Northeast 457 526 31,000  Level Kansas City Center
04:33PM 39.7311 -93.6289 63° Northeast 470 541 31,000  Level Kansas City Center
04:34PM 39.7914 -93.4775 63° Northeast 474 545 31,000  Level Kansas City Center
04:35PM 39.8506 -93.3311 62° Northeast 467 537 31,000  Level Kansas City Center
04:36PM 39.9192 -93.1497 64° Northeast 469 540 31,000  Level Kansas City Center
04:37PM 39.9767 -93.0019 63° Northeast 464 534 31,000  Level Kansas City Center
04:38PM 40.0353 -92.8511 63° Northeast 469 540 31,000  Level Kansas City Center
04:39PM 40.0931 -92.6978 64° Northeast 464 534 31,000  Level Kansas City Center
04:40PM 40.1589 -92.5272 63° Northeast 469 540 31,000  Level Kansas City Center
04:41PM 40.2128 -92.3814 64° Northeast 467 537 31,000  Level Kansas City Center
04:42PM 40.2675 -92.2250 65° Northeast 469 540 31,000  Level Kansas City Center
04:43PM 40.3217 -92.0725 65° Northeast 468 539 31,000  Level Kansas City Center
04:44PM 40.3761 -91.9189 65° Northeast 470 541 31,000  Level Kansas City Center
04:45PM 40.4408 -91.7339 65° Northeast 470 541 31,000  Level Kansas City Center
04:46PM 40.4850 -91.6094 65° Northeast 472 543 31,000  Level Chicago Center
04:47PM 40.5375 -91.4528 66° East 471 542 31,000  Level Chicago Center
04:48PM 40.5972 -91.2756 66° East 470 541 31,000  Level Chicago Center
04:49PM 40.6519 -91.1178 65° Northeast 474 545 31,000  Level Chicago Center
04:50PM 40.7061 -90.9581 66° East 478 550 31,000  Level Chicago Center
04:51PM 40.7603 -90.7983 66° East 477 549 31,000 -60 Level Chicago Center
04:52PM 40.8239 -90.6072 66° East 473 544 30,900 -480 Descending Chicago Center
04:54PM 40.8772 -90.4483 66° East 471 542 30,100 -1,140 Descending Chicago Center
04:55PM 40.9303 -90.2883 66° East 471 542 28,600 -1,380 Descending Chicago Center
04:56PM 40.9800 -90.1397 66° East 460 529 27,300 -1,440 Descending Chicago Center
04:57PM 41.0344 -89.9742 66° East 462 532 25,700 -1,380 Descending Chicago Center
04:58PM 41.0869 -89.8131 67° East 469 540 24,500 -840 Descending Chicago Center
04:59PM 41.1378 -89.6578 66° East 458 527 24,000 -780 Descending Chicago Center
05:00PM 41.1900 -89.5156 64° Northeast 435 501 23,000 -1,680 Descending Chicago Center
05:01PM 41.2556 -89.3519 62° Northeast 417 480 20,600 -2,400 Descending Chicago Center
05:02PM 41.3089 -89.2186 62° Northeast 410 472 18,100 -2,400 Descending Chicago Center
05:03PM 41.3656 -89.0769 62° Northeast 405 466 15,700 -2,160 Descending Chicago Center
05:04PM 41.4161 -88.9528 61° Northeast 387 445 13,700 -2,040 Descending Chicago Center
05:05PM 41.4625 -88.8336 63° Northeast 368 423 11,600 -1,380 Descending Chicago Center
05:06PM 41.5097 -88.7144 62° Northeast 367 422 10,900 -300 Descending Chicago Center
05:07PM 41.5547 -88.5967 63° Northeast 359 413 11,100 -360 Climbing Chicago Center
05:08PM 41.6025 -88.4814 61° Northeast 359 413 10,200 -540 Descending Chicago Center
05:09PM 41.6711 -88.3611 53° Northeast 341 392 10,000 -180 Descending Chicago Center
05:10PM 41.7314 -88.2561 52° Northeast 352 405 9,900 -360 Descending Chicago Center
05:11PM 41.7825 -88.1667 53° Northeast 302 348 9,300 -1,080 Descending Chicago Center
05:12PM 41.8239 -88.0842 56° Northeast 268 308 7,700 -1,200 Descending Chicago Center
05:13PM 41.8439 -87.9872 74° East 268 308 6,900 -360 Descending Chicago Center
05:14PM 41.8653 -87.8892 74° East 273 314 7,000 -420 Climbing Chicago Center
05:15PM 41.8833 -87.8167 71° East 237 273 6,200 -1,920 Descending Chicago TRACON
05:16PM 41.8833 -87.7333 90° East 249 287 4,000 -1,740 Descending Chicago TRACON
05:17PM 41.9333 -87.7167 14° North 205 236 2,900 -840 Descending Chicago TRACON
05:18PM 41.9667 -87.7667 312° West 172 198 2,400 -600 Descending Chicago TRACON
05:19PM 41.9667 -87.8167 270° West 131 151 1,800 -720 Descending Chicago TRACON
05:20PM 41.9667 -87.8667 270° West 128 147 1,000 -780 Descending Chicago TRACON
05:22PM 41.9667 -87.9000 37° Northeast  Level FlightAware Approximate